Tolhuin, Argentina

1:44 PM ART on September 21, 2014 (GMT -0300)
Ushuaia International Malvine Island | Change Station
CLOSE
Current Station
Airport
Location: Ushuaia,
Elevation: 69 ft
Nearby Weather Stations

Elev 69 ft 54.84 °S, 68.31 °W | Updated 44 minutes ago

Drizzle
Drizzle
41 °F
Feels Like 32 °F
N
21
Wind Variable Wind from East
Gusts 34 mph

Today
High -- | Low -- °F
--% Chance of Precip.
Yesterday
High -- | Low -- °F
Precip. -- in
7:20 AM 7:25 PM
Waning Crescent, 6% visible
Pressure 29.39 in
Visibility 6.2 miles
Clouds Scattered Clouds 2500 ft
Mostly Cloudy 3500 ft
Windchill 32 °F
Dew Point 37 °F
Humidity 87%
Rainfall 0.00 in
Snow Depth Not available.
UV 2 out of 12
Pollen Not available.
Air Quality Not available.
Flu Activity Not available.
METAR SAWH 211600Z 09018G30KT 9999 DZ SCT025 BKN035 05/03 Q0995

More Conditions Fewer Conditions

Pressure 29.39 in
Visibility 6.2 miles
Clouds Scattered Clouds 2500 ft
Mostly Cloudy 3500 ft
Windchill 32 °F
Dew Point 37 °F
Humidity 87%
Rainfall 0.00 in
Snow Depth Not available.
UV 2 out of 12
Pollen Not available.
Air Quality Not available.
Flu Activity Not available.
METAR SAWH 211600Z 09018G30KT 9999 DZ SCT025 BKN035 05/03 Q0995

More Conditions Fewer Conditions

10-Day Weather Forecast

Almanac

Astronomy

Sep. 21, 2014 Rise Set
Actual Time 7:20 AM ART 7:25 PM ART
Civil Twilight 6:44 AM ART 8:01 PM ART
Nautical Twilight 6:01 AM ART 8:43 PM ART
Astronomical Twilight 5:17 AM ART 9:28 PM ART
Moon 6:08 AM ART 4:55 PM ART
Length of Visible Light 13h 16m
Length of Day
12h 05m
Tomorrow will be 4m 24s longer.
Waning Crescent, 6% of the Moon is Illuminated
Today
Waning Crescent
Sep 24
New
Oct 1
First Quarter
Oct 8
Full
Oct 15
Last Quarter

Today's Extremes

Country Highs Country Lows

Community

WunderPhotos

Upload Photos

1,755,186 photos uploaded!

Nearby

Snow Depth

Not available.

Earthquake Activity

City Distance Mag. Time & Date
No recent earthquake activity has been reported nearby.
Minimum magnitude displayed is 2.5.

Coastal Water Temperatures

Place Temperature
No Stations Reporting

Nearby Weather Stations